Time;durP1;ratioP1;P1;durP2;ratioP2;P2;SDS_P1;SDS_P2;PMS_P1;PMS_P2;Temp;Humidity;BMP_temperature;BMP_pressure;BME280_temperature;BME280_humidity;BME280_pressure;Samples;Min_cycle;Max_cycle;Signal;HPM_P1;HPM_P2
2022/01/09 00:00:29;;;;;;;0.50;0.10;;;4.20;1.00;;;;;;5059648;28;20454;-79
2022/01/09 00:02:58;;;;;;;0.50;0.10;;;4.20;1.00;;;;;;5055983;28;20825;-78
2022/01/09 00:05:27;;;;;;;0.50;0.10;;;4.20;1.00;;;;;;5052565;28;20570;-78
2022/01/09 00:07:55;;;;;;;0.50;0.10;;;4.20;1.00;;;;;;5050913;28;20463;-78
2022/01/09 00:10:23;;;;;;;0.50;0.10;;;4.20;1.00;;;;;;5050082;28;20459;-79
2022/01/09 00:12:51;;;;;;;0.50;0.10;;;4.20;1.00;;;;;;5059846;28;20482;-78
2022/01/09 00:15:19;;;;;;;0.50;0.10;;;4.20;1.00;;;;;;5064788;28;20478;-78
2022/01/09 00:17:48;;;;;;;0.50;0.10;;;;;;;;;;5063135;28;20508;-77
2022/01/09 00:20:16;;;;;;;0.50;0.10;;;4.20;1.00;;;;;;5049848;28;20520;-76
2022/01/09 00:22:47;;;;;;;0.50;0.10;;;4.30;1.00;;;;;;5054942;28;20485;-76
2022/01/09 00:25:17;;;;;;;0.50;0.10;;;4.30;1.00;;;;;;5053848;28;20470;-76
2022/01/09 00:27:45;;;;;;;0.50;0.10;;;4.30;1.00;;;;;;5054334;28;20441;-76
2022/01/09 00:30:15;;;;;;;0.50;0.10;;;4.30;1.00;;;;;;5055747;28;20455;-76
2022/01/09 00:32:43;;;;;;;0.50;0.10;;;4.30;1.00;;;;;;5056310;28;20476;-77
2022/01/09 00:35:13;;;;;;;0.50;0.10;;;4.30;1.00;;;;;;5056491;28;20481;-76
2022/01/09 00:37:41;;;;;;;0.50;0.10;;;4.30;1.00;;;;;;5056327;28;20454;-77
2022/01/09 00:40:12;;;;;;;0.50;0.10;;;4.30;1.00;;;;;;5055233;28;20452;-77
2022/01/09 00:42:41;;;;;;;0.50;0.10;;;4.30;1.00;;;;;;5055481;28;20461;-76
2022/01/09 00:45:10;;;;;;;0.60;0.43;;;4.30;1.00;;;;;;5055137;28;20468;-75
2022/01/09 00:47:38;;;;;;;0.50;0.10;;;4.30;1.00;;;;;;5055039;28;20548;-76
2022/01/09 00:50:07;;;;;;;0.50;0.10;;;4.40;1.00;;;;;;5055014;28;20843;-77
2022/01/09 00:52:37;;;;;;;0.50;0.10;;;4.40;1.00;;;;;;5055058;28;20441;-77
2022/01/09 00:55:06;;;;;;;0.50;0.10;;;4.40;1.00;;;;;;5054835;28;20470;-77
2022/01/09 00:57:34;;;;;;;0.50;0.10;;;4.40;1.00;;;;;;5054610;28;20449;-76
2022/01/09 01:00:03;;;;;;;0.50;0.10;;;4.40;1.00;;;;;;5054927;28;20443;-75
2022/01/09 01:02:31;;;;;;;0.50;0.10;;;4.50;1.00;;;;;;5054715;28;20810;-76
2022/01/09 01:04:59;;;;;;;0.50;0.10;;;4.60;1.00;;;;;;5054742;28;20569;-77
2022/01/09 01:07:28;;;;;;;0.50;0.10;;;4.50;1.00;;;;;;5054894;28;20455;-77
2022/01/09 01:09:57;;;;;;;0.93;0.93;;;4.60;1.00;;;;;;5054899;28;20439;-77
2022/01/09 01:12:26;;;;;;;0.50;0.10;;;4.50;1.00;;;;;;5054770;28;20476;-77
2022/01/09 01:14:54;;;;;;;0.50;0.10;;;4.50;1.00;;;;;;5054418;28;20495;-76
2022/01/09 01:17:23;;;;;;;0.50;0.10;;;4.50;1.00;;;;;;5055740;28;20440;-78
2022/01/09 01:19:52;;;;;;;0.50;0.10;;;4.60;1.00;;;;;;5055736;28;20900;-77
2022/01/09 01:22:30;;;;;;;0.50;0.10;;;4.60;1.00;;;;;;5055195;28;20441;-76
2022/01/09 01:25:00;;;;;;;0.50;0.10;;;4.60;1.00;;;;;;5051826;28;20486;-76
2022/01/09 01:27:29;;;;;;;0.50;0.10;;;4.60;1.00;;;;;;5053973;28;20435;-77
2022/01/09 01:29:56;;;;;;;0.50;0.10;;;4.70;1.00;;;;;;5054167;28;20448;-77
2022/01/09 01:32:25;;;;;;;0.50;0.10;;;4.70;1.00;;;;;;5054634;28;20448;-77
2022/01/09 01:34:53;;;;;;;0.50;0.10;;;4.70;1.00;;;;;;5052978;28;20475;-77
2022/01/09 01:37:21;;;;;;;0.50;0.10;;;4.80;1.00;;;;;;5054329;28;20431;-77
2022/01/09 01:39:50;;;;;;;0.50;0.10;;;4.80;1.00;;;;;;5054204;28;20532;-78
2022/01/09 01:42:19;;;;;;;0.50;0.10;;;4.70;1.00;;;;;;5054031;28;21019;-75
2022/01/09 01:44:49;;;;;;;0.50;0.10;;;4.70;1.00;;;;;;5053548;28;20496;-77
2022/01/09 01:47:19;;;;;;;0.50;0.10;;;4.70;1.00;;;;;;5053815;28;20448;-75
2022/01/09 01:49:47;;;;;;;0.50;0.10;;;4.70;1.00;;;;;;5053918;28;20420;-77
2022/01/09 01:52:17;;;;;;;0.50;0.10;;;4.70;1.00;;;;;;5053907;28;20444;-76
2022/01/09 01:54:45;;;;;;;0.50;0.10;;;4.80;1.00;;;;;;5053502;28;20556;-76
2022/01/09 01:57:13;;;;;;;0.50;0.10;;;4.80;1.00;;;;;;5053788;28;20439;-77
2022/01/09 01:59:42;;;;;;;0.50;0.10;;;4.80;1.00;;;;;;5053828;28;20446;-76
2022/01/09 02:02:10;;;;;;;0.50;0.10;;;4.80;1.00;;;;;;5053709;28;20451;-76
2022/01/09 02:04:38;;;;;;;0.50;0.10;;;4.80;1.00;;;;;;5053176;28;20499;-76
2022/01/09 02:07:08;;;;;;;0.50;0.10;;;4.80;1.00;;;;;;5053783;28;20456;-76
2022/01/09 02:09:36;;;;;;;0.50;0.10;;;4.80;1.00;;;;;;5053358;28;20814;-77
2022/01/09 02:12:06;;;;;;;0.50;0.10;;;4.80;1.00;;;;;;5053364;28;20941;-77
2022/01/09 02:14:35;;;;;;;0.50;0.10;;;4.80;1.00;;;;;;5053280;28;20536;-76
2022/01/09 02:17:05;;;;;;;0.50;0.10;;;4.90;1.00;;;;;;5053622;28;20447;-76
2022/01/09 02:19:33;;;;;;;0.50;0.10;;;4.90;1.00;;;;;;5053236;28;20494;-76
2022/01/09 02:22:03;;;;;;;0.50;0.10;;;4.90;1.00;;;;;;5053769;28;20520;-75
2022/01/09 02:24:31;;;;;;;0.50;0.10;;;5.00;1.00;;;;;;5053211;28;20520;-75
2022/01/09 02:26:59;;;;;;;0.60;0.40;;;5.00;1.00;;;;;;5052710;28;20466;-75
2022/01/09 02:29:27;;;;;;;0.50;0.10;;;5.00;1.00;;;;;;5053572;28;20540;-77
2022/01/09 02:31:55;;;;;;;0.50;0.10;;;5.00;1.00;;;;;;5055491;28;20458;-75
2022/01/09 02:34:23;;;;;;;0.50;0.10;;;5.00;1.00;;;;;;5055758;28;20521;-75
2022/01/09 02:36:51;;;;;;;0.50;0.10;;;5.10;1.00;;;;;;5054255;28;20447;-76
2022/01/09 02:39:20;;;;;;;0.50;0.10;;;5.10;1.00;;;;;;5053230;28;20460;-76
2022/01/09 02:41:48;;;;;;;0.50;0.10;;;5.10;1.00;;;;;;5052912;28;20453;-78
2022/01/09 02:44:16;;;;;;;0.50;0.10;;;5.20;1.00;;;;;;5052849;28;20847;-78
2022/01/09 02:46:55;;;;;;;0.50;0.10;;;5.20;1.00;;;;;;5052671;28;20953;-75
2022/01/09 02:49:25;;;;;;;0.50;0.10;;;5.20;1.00;;;;;;5053064;28;20451;-77
2022/01/09 02:51:53;;;;;;;0.50;0.20;;;5.20;1.00;;;;;;5052574;28;20442;-77
2022/01/09 02:57:08;;;;;;;0.50;0.10;;;5.30;1.00;;;;;;5052616;28;20459;-78
2022/01/09 02:59:36;;;;;;;0.50;0.10;;;5.40;1.00;;;;;;5052853;28;20448;-77
2022/01/09 03:02:05;;;;;;;0.50;0.10;;;5.40;1.00;;;;;;5052801;28;20477;-77
2022/01/09 03:04:32;;;;;;;0.50;0.20;;;5.50;1.00;;;;;;5052339;28;20488;-75
2022/01/09 03:07:00;;;;;;;0.50;0.10;;;5.50;1.00;;;;;;5052229;28;21155;-76
2022/01/09 03:09:29;;;;;;;0.50;0.10;;;5.60;1.00;;;;;;5052155;28;20444;-76
2022/01/09 03:11:57;;;;;;;2.30;1.60;;;5.60;1.00;;;;;;5052535;28;20435;-76
2022/01/09 03:14:25;;;;;;;0.50;0.20;;;5.60;1.00;;;;;;5052735;28;20470;-77
2022/01/09 03:16:53;;;;;;;0.50;0.20;;;5.60;1.00;;;;;;5052289;28;21012;-78
2022/01/09 03:19:21;;;;;;;0.50;0.10;;;5.60;1.00;;;;;;5052505;28;20455;-77
2022/01/09 03:21:49;;;;;;;0.50;0.20;;;5.60;1.00;;;;;;5054339;28;20457;-76
2022/01/09 03:24:17;;;;;;;0.50;0.27;;;5.60;1.00;;;;;;5053527;28;20494;-76
2022/01/09 03:26:46;;;;;;;0.80;0.33;;;5.60;1.00;;;;;;5055590;28;20467;-76
2022/01/09 03:29:14;;;;;;;0.83;0.83;;;5.60;1.00;;;;;;5054788;28;20490;-76
2022/01/09 03:31:42;;;;;;;0.50;0.30;;;5.60;1.00;;;;;;5054557;28;20484;-77
2022/01/09 03:34:10;;;;;;;0.50;0.10;;;;;;;;;;5054494;28;20443;-77
2022/01/09 03:36:38;;;;;;;0.50;0.10;;;5.60;1.00;;;;;;5052529;28;20890;-76
2022/01/09 03:39:06;;;;;;;0.50;0.10;;;5.60;1.00;;;;;;5052214;28;20443;-77
2022/01/09 03:41:35;;;;;;;0.60;0.50;;;;;;;;;;5052203;28;20440;-76
2022/01/09 03:44:05;;;;;;;0.50;0.10;;;5.60;1.00;;;;;;5051884;28;20453;-76
2022/01/09 03:46:33;;;;;;;0.70;0.57;;;5.50;1.00;;;;;;5052296;28;20451;-75
2022/01/09 03:49:01;;;;;;;0.50;0.10;;;5.60;1.00;;;;;;5052003;28;20464;-76
2022/01/09 03:51:33;;;;;;;0.50;0.20;;;5.50;1.00;;;;;;5052081;28;20443;-77
2022/01/09 03:54:01;;;;;;;2.20;0.73;;;5.40;1.00;;;;;;5051903;28;20460;-75
2022/01/09 03:56:29;;;;;;;0.50;0.20;;;5.40;1.00;;;;;;5051900;28;20450;-75
2022/01/09 03:58:57;;;;;;;0.50;0.10;;;5.40;1.00;;;;;;5054162;28;20445;-76
2022/01/09 04:01:27;;;;;;;0.50;0.10;;;5.40;1.00;;;;;;5056184;28;20998;-75
2022/01/09 04:03:55;;;;;;;0.50;0.10;;;;;;;;;;5056166;28;20911;-77
2022/01/09 04:06:24;;;;;;;0.50;0.10;;;5.30;1.00;;;;;;5055688;28;20482;-77
2022/01/09 04:08:53;;;;;;;0.50;0.10;;;5.30;1.00;;;;;;5055673;28;20443;-76
2022/01/09 04:11:26;;;;;;;0.67;0.40;;;5.30;1.00;;;;;;5055964;28;20877;-78
2022/01/09 04:13:54;;;;;;;0.50;0.20;;;5.20;1.00;;;;;;5055954;28;20534;-78
2022/01/09 04:16:22;;;;;;;0.60;0.20;;;5.20;1.00;;;;;;5056081;28;20928;-75
2022/01/09 04:18:51;;;;;;;0.50;0.10;;;5.20;1.00;;;;;;5055754;28;20447;-76
2022/01/09 04:21:19;;;;;;;1.87;0.70;;;5.20;1.00;;;;;;5055757;28;20451;-77
2022/01/09 04:23:47;;;;;;;0.50;0.10;;;5.20;1.00;;;;;;5055549;28;20557;-77
2022/01/09 04:26:16;;;;;;;0.50;0.30;;;5.10;1.00;;;;;;5055289;28;20495;-76
2022/01/09 04:28:45;;;;;;;0.50;0.10;;;5.20;1.00;;;;;;5058243;28;20428;-76
2022/01/09 04:31:15;;;;;;;0.60;0.20;;;5.10;1.00;;;;;;5072224;28;20479;-75
2022/01/09 04:33:43;;;;;;;1.53;0.30;;;5.20;1.00;;;;;;5072986;28;20855;-77
2022/01/09 04:36:12;;;;;;;0.50;0.10;;;5.10;1.00;;;;;;5073500;28;20477;-77
2022/01/09 04:38:40;;;;;;;0.50;0.10;;;5.10;1.00;;;;;;5074344;28;20444;-77
2022/01/09 04:41:08;;;;;;;2.63;0.60;;;5.10;1.00;;;;;;5073098;28;20438;-76
2022/01/09 04:43:36;;;;;;;0.50;0.10;;;5.10;1.00;;;;;;5074383;28;20460;-78
2022/01/09 04:46:04;;;;;;;0.50;0.17;;;5.10;1.00;;;;;;5073017;28;20555;-77
2022/01/09 04:48:32;;;;;;;0.50;0.10;;;5.10;1.00;;;;;;5074326;28;20447;-76
2022/01/09 04:51:00;;;;;;;0.50;0.10;;;5.00;1.00;;;;;;5073706;28;20453;-76
2022/01/09 04:53:29;;;;;;;0.50;0.20;;;5.00;1.00;;;;;;5070347;28;20533;-77
2022/01/09 04:55:57;;;;;;;0.50;0.10;;;5.00;1.00;;;;;;5069978;28;20525;-77
2022/01/09 04:58:25;;;;;;;0.50;0.10;;;5.00;1.00;;;;;;5071029;28;20431;-77
2022/01/09 05:00:52;;;;;;;0.60;0.20;;;5.00;1.00;;;;;;5071298;28;20458;-77
2022/01/09 05:03:20;;;;;;;0.50;0.20;;;4.90;1.00;;;;;;5069800;28;20453;-77
2022/01/09 05:05:48;;;;;;;0.60;0.23;;;4.90;1.00;;;;;;5070350;28;20478;-76
2022/01/09 05:08:16;;;;;;;0.50;0.10;;;4.90;1.00;;;;;;5066687;28;20459;-77
2022/01/09 05:10:46;;;;;;;0.50;0.10;;;4.90;1.00;;;;;;5059635;28;20978;-77
2022/01/09 05:13:14;;;;;;;0.50;0.10;;;4.90;1.00;;;;;;5066029;28;20440;-77
2022/01/09 05:15:42;;;;;;;0.50;0.10;;;4.90;1.00;;;;;;5059163;28;20657;-77
2022/01/09 05:18:14;;;;;;;0.50;0.20;;;4.90;1.00;;;;;;5061725;28;20461;-77
2022/01/09 05:20:42;;;;;;;0.50;0.20;;;4.80;1.00;;;;;;5070462;28;20457;-77
2022/01/09 05:23:10;;;;;;;0.50;0.10;;;4.90;1.00;;;;;;5062883;28;20451;-77
2022/01/09 05:25:38;;;;;;;0.50;0.30;;;4.80;1.00;;;;;;5068305;28;20557;-77
2022/01/09 05:28:08;;;;;;;0.50;0.10;;;4.80;1.00;;;;;;5065957;28;20459;-76
2022/01/09 05:30:35;;;;;;;0.60;0.27;;;4.80;1.00;;;;;;5059795;28;20447;-78
2022/01/09 05:33:03;;;;;;;0.50;0.10;;;4.80;1.00;;;;;;5064748;28;20524;-77
2022/01/09 05:35:31;;;;;;;0.50;0.10;;;4.80;1.00;;;;;;5066519;28;20471;-76
2022/01/09 05:37:59;;;;;;;0.50;0.10;;;4.80;1.00;;;;;;5067380;28;20457;-76
2022/01/09 05:40:27;;;;;;;0.50;0.20;;;4.70;1.00;;;;;;5065735;28;20518;-77
2022/01/09 05:42:55;;;;;;;0.50;0.10;;;4.70;1.00;;;;;;5066399;28;20458;-77
2022/01/09 05:45:24;;;;;;;0.50;0.10;;;4.70;1.00;;;;;;5066484;28;20468;-77
2022/01/09 05:47:52;;;;;;;0.50;0.10;;;4.60;1.00;;;;;;5059318;28;20470;-77
2022/01/09 05:50:20;;;;;;;0.50;0.10;;;4.70;1.00;;;;;;5058193;28;20588;-76
2022/01/09 05:52:48;;;;;;;0.50;0.10;;;4.70;1.00;;;;;;5061409;28;20445;-77
2022/01/09 05:55:16;;;;;;;2.60;0.40;;;4.60;1.00;;;;;;5068469;28;20527;-76
2022/01/09 05:57:44;;;;;;;1.37;0.43;;;4.60;1.00;;;;;;5066027;28;20437;-77
2022/01/09 06:00:14;;;;;;;0.97;0.30;;;4.60;1.00;;;;;;5066037;28;20441;-77
2022/01/09 06:02:44;;;;;;;0.50;0.10;;;4.70;1.00;;;;;;5063514;28;20438;-76
2022/01/09 06:05:12;;;;;;;0.60;0.30;;;4.70;1.00;;;;;;5062252;28;20469;-76
2022/01/09 06:07:40;;;;;;;0.60;0.20;;;4.70;1.00;;;;;;5060381;28;20480;-76
2022/01/09 06:10:09;;;;;;;0.50;0.10;;;4.70;1.00;;;;;;5060309;28;20941;-76
2022/01/09 06:12:37;;;;;;;0.50;0.10;;;4.70;1.00;;;;;;5061597;28;20508;-77
2022/01/09 06:15:07;;;;;;;0.50;0.10;;;4.70;1.00;;;;;;5062258;28;20492;-75
2022/01/09 06:17:36;;;;;;;0.50;0.10;;;4.70;1.00;;;;;;5063823;28;20436;-76
2022/01/09 06:20:08;;;;;;;1.83;0.53;;;4.70;1.00;;;;;;5061422;28;20503;-76
2022/01/09 06:22:35;;;;;;;1.03;0.40;;;4.70;1.00;;;;;;5059264;28;20459;-76
2022/01/09 06:25:04;;;;;;;0.50;0.10;;;4.70;1.00;;;;;;5056229;28;20465;-76
2022/01/09 06:27:32;;;;;;;0.50;0.10;;;4.70;1.00;;;;;;5056997;28;20834;-76
2022/01/09 06:30:01;;;;;;;0.50;0.20;;;4.70;1.00;;;;;;5057950;28;20919;-77
2022/01/09 06:32:29;;;;;;;0.50;0.20;;;4.70;1.00;;;;;;5061276;28;20460;-77
2022/01/09 06:34:56;;;;;;;0.60;0.30;;;4.70;1.00;;;;;;5049989;28;20886;-76
2022/01/09 06:37:26;;;;;;;0.50;0.20;;;4.70;1.00;;;;;;5046800;28;20436;-76
2022/01/09 06:39:54;;;;;;;0.97;0.90;;;4.70;1.00;;;;;;5046668;28;20491;-76
2022/01/09 06:42:21;;;;;;;0.60;0.30;;;4.70;1.00;;;;;;5047808;28;20453;-77
2022/01/09 06:44:50;;;;;;;0.50;0.20;;;;;;;;;;5046942;28;20474;-77
2022/01/09 06:47:17;;;;;;;0.50;0.20;;;4.80;1.00;;;;;;5045780;28;20511;-77
2022/01/09 06:49:46;;;;;;;0.50;0.17;;;4.90;1.00;;;;;;5046537;28;20444;-77
2022/01/09 06:52:14;;;;;;;0.50;0.20;;;4.90;1.00;;;;;;5046616;28;20455;-77
2022/01/09 06:54:43;;;;;;;2.97;0.50;;;4.90;1.00;;;;;;5045484;28;20448;-77
2022/01/09 06:57:11;;;;;;;0.83;0.30;;;4.90;1.00;;;;;;5041444;28;20465;-76
2022/01/09 06:59:39;;;;;;;0.50;0.20;;;4.90;1.00;;;;;;5042080;28;20441;-77
2022/01/09 07:02:07;;;;;;;0.50;0.10;;;5.00;1.00;;;;;;5043330;28;20472;-76
2022/01/09 07:04:35;;;;;;;0.50;0.30;;;5.00;1.00;;;;;;5039054;28;20475;-76
2022/01/09 07:07:03;;;;;;;0.50;0.20;;;5.00;1.00;;;;;;5038634;28;20487;-77
2022/01/09 07:09:31;;;;;;;1.53;0.30;;;5.00;1.00;;;;;;5037066;28;20447;-77
2022/01/09 07:12:01;;;;;;;0.60;0.30;;;5.10;1.00;;;;;;5036852;28;20535;-77
2022/01/09 07:14:28;;;;;;;0.70;0.40;;;5.00;1.00;;;;;;5037146;28;20470;-77
2022/01/09 07:16:56;;;;;;;1.07;0.40;;;5.00;1.00;;;;;;5035958;28;20449;-77
2022/01/09 07:19:24;;;;;;;0.50;0.10;;;5.10;1.00;;;;;;5034966;28;20475;-77
2022/01/09 07:21:52;;;;;;;0.93;0.83;;;5.10;1.00;;;;;;5034937;28;20468;-77
2022/01/09 07:24:21;;;;;;;0.60;0.30;;;5.10;1.00;;;;;;5035643;28;20463;-77
2022/01/09 07:26:49;;;;;;;0.70;0.30;;;5.10;1.00;;;;;;5036139;28;20506;-76
2022/01/09 07:29:18;;;;;;;0.70;0.40;;;5.10;1.00;;;;;;5035569;28;20479;-77
2022/01/09 07:31:46;;;;;;;0.53;0.20;;;5.10;1.00;;;;;;5035437;28;20456;-77
2022/01/09 07:34:14;;;;;;;0.70;0.53;;;5.10;1.00;;;;;;5034026;28;20483;-78
2022/01/09 07:36:42;;;;;;;0.50;0.17;;;5.10;1.00;;;;;;5036484;28;20452;-76
2022/01/09 07:39:10;;;;;;;0.73;0.50;;;5.10;1.00;;;;;;5036476;28;20450;-76
2022/01/09 07:41:38;;;;;;;3.53;0.50;;;5.10;1.00;;;;;;5036836;28;20494;-77
2022/01/09 07:44:06;;;;;;;0.70;0.43;;;5.10;1.00;;;;;;5035097;28;20479;-77
2022/01/09 07:46:36;;;;;;;0.87;0.87;;;5.10;1.00;;;;;;5034733;28;20968;-76
2022/01/09 07:49:04;;;;;;;0.63;0.50;;;5.10;1.00;;;;;;5034992;28;20453;-76
2022/01/09 07:51:32;;;;;;;0.80;0.30;;;5.10;1.00;;;;;;5035848;28;20456;-77
2022/01/09 07:54:19;;;;;;;1.73;0.70;;;5.10;1.00;;;;;;5034463;28;20482;-78
2022/01/09 07:56:46;;;;;;;0.50;0.20;;;5.10;1.00;;;;;;5035119;28;20923;-77
2022/01/09 07:59:14;;;;;;;4.40;1.33;;;5.10;1.00;;;;;;5036759;28;20469;-77
2022/01/09 08:01:49;;;;;;;0.50;0.10;;;5.10;1.00;;;;;;5035390;28;20478;-77
2022/01/09 08:04:18;;;;;;;3.20;3.00;;;5.20;1.00;;;;;;5034881;28;20476;-77
2022/01/09 08:06:46;;;;;;;0.50;0.30;;;5.20;1.00;;;;;;5035260;28;20449;-77
2022/01/09 08:09:14;;;;;;;1.10;0.93;;;5.20;1.00;;;;;;5034350;28;20476;-77
2022/01/09 08:11:42;;;;;;;1.57;0.60;;;5.20;1.00;;;;;;5033425;28;20443;-77
2022/01/09 08:14:10;;;;;;;1.03;0.50;;;5.20;1.00;;;;;;5035355;28;20459;-78
2022/01/09 08:16:38;;;;;;;0.70;0.43;;;5.20;1.00;;;;;;5040622;28;20453;-78
2022/01/09 08:19:07;;;;;;;1.97;1.80;;;5.50;1.00;;;;;;5036779;28;20445;-78
2022/01/09 08:21:35;;;;;;;9.83;1.60;;;5.30;1.00;;;;;;5035861;28;20539;-77
2022/01/09 08:24:04;;;;;;;2.10;0.60;;;5.30;1.00;;;;;;5036295;28;20443;-77
2022/01/09 08:26:32;;;;;;;1.60;0.77;;;5.30;1.00;;;;;;5034459;28;20538;-76
2022/01/09 08:29:00;;;;;;;1.47;1.27;;;5.30;1.00;;;;;;5034446;28;20480;-77
2022/01/09 08:31:28;;;;;;;0.77;0.50;;;5.30;1.00;;;;;;5034503;28;20452;-76
2022/01/09 08:33:55;;;;;;;1.23;0.50;;;5.30;1.00;;;;;;5033988;28;20450;-76
2022/01/09 08:36:25;;;;;;;0.50;0.20;;;5.20;1.00;;;;;;5033742;28;20444;-78
2022/01/09 08:38:53;;;;;;;1.43;1.13;;;5.20;1.00;;;;;;5034198;28;20456;-78
2022/01/09 08:41:21;;;;;;;2.63;0.63;;;5.20;1.00;;;;;;5034158;28;20603;-78
2022/01/09 08:43:48;;;;;;;0.50;0.20;;;5.20;1.00;;;;;;5034352;28;20447;-77
2022/01/09 08:46:17;;;;;;;0.70;0.40;;;5.20;1.00;;;;;;5039784;28;20484;-77
2022/01/09 08:48:44;;;;;;;1.17;1.07;;;5.20;1.00;;;;;;5055573;28;20485;-77
2022/01/09 08:51:12;;;;;;;1.00;0.30;;;5.20;1.00;;;;;;5057015;28;20534;-77
2022/01/09 08:53:50;;;;;;;0.50;0.10;;;5.10;1.00;;;;;;5057653;28;20488;-77
2022/01/09 08:56:19;;;;;;;4.00;1.40;;;5.10;1.00;;;;;;5057267;28;20519;-76
2022/01/09 08:58:47;;;;;;;1.40;1.30;;;5.10;1.00;;;;;;5057303;28;20446;-77
2022/01/09 09:01:35;;;;;;;0.60;0.20;;;5.10;1.00;;;;;;5056264;28;20448;-76
2022/01/09 09:04:04;;;;;;;0.50;0.10;;;5.10;1.00;;;;;;5051425;28;20491;-76
2022/01/09 09:06:32;;;;;;;0.50;0.20;;;5.10;1.00;;;;;;5055305;28;20889;-77
2022/01/09 09:09:01;;;;;;;1.50;1.40;;;5.10;1.00;;;;;;5052837;28;20478;-77
2022/01/09 09:11:29;;;;;;;2.90;1.03;;;5.10;1.00;;;;;;5054095;28;20480;-76
2022/01/09 09:13:57;;;;;;;0.50;0.10;;;5.10;1.00;;;;;;5055037;28;20478;-78
2022/01/09 09:16:25;;;;;;;0.60;0.53;;;5.10;1.00;;;;;;5058148;28;20536;-77
2022/01/09 09:18:53;;;;;;;0.50;0.20;;;5.10;1.00;;;;;;5056726;28;20483;-77
2022/01/09 09:21:21;;;;;;;0.90;0.70;;;5.20;1.00;;;;;;5057698;28;20455;-77
2022/01/09 09:23:49;;;;;;;0.80;0.60;;;;;;;;;;5057164;28;20454;-78
2022/01/09 09:26:21;;;;;;;2.20;0.50;;;5.20;1.00;;;;;;5056600;28;20547;-77
2022/01/09 09:28:49;;;;;;;1.93;0.33;;;5.30;1.00;;;;;;5057721;28;20558;-78
2022/01/09 09:31:18;;;;;;;0.60;0.30;;;4.90;1.00;;;;;;5057813;28;20439;-77
2022/01/09 09:33:46;;;;;;;0.50;0.10;;;5.30;1.00;;;;;;5057507;28;20448;-77
2022/01/09 09:36:14;;;;;;;0.83;0.50;;;5.40;1.00;;;;;;5098069;22;20485;-80
2022/01/09 09:38:42;;;;;;;0.50;0.20;;;5.40;1.00;;;;;;5077262;28;20439;-79
2022/01/09 09:41:10;;;;;;;0.50;0.30;;;5.40;1.00;;;;;;5076195;28;20445;-78
2022/01/09 09:43:39;;;;;;;0.50;0.20;;;5.40;1.00;;;;;;5073132;28;20456;-77
2022/01/09 09:46:07;;;;;;;7.70;1.10;;;5.40;1.00;;;;;;5081952;28;20479;-78
2022/01/09 09:48:35;;;;;;;1.50;1.03;;;5.40;1.00;;;;;;5080901;28;20483;-78
2022/01/09 09:51:03;;;;;;;0.50;0.20;;;5.40;1.00;;;;;;5077457;28;20443;-78
2022/01/09 09:53:31;;;;;;;0.80;0.47;;;5.40;1.00;;;;;;5077076;28;20448;-78
2022/01/09 09:55:59;;;;;;;0.53;0.30;;;5.40;1.00;;;;;;5075963;28;20469;-79
2022/01/09 09:58:28;;;;;;;0.50;0.20;;;5.40;1.00;;;;;;5075465;28;20467;-78
2022/01/09 10:00:58;;;;;;;0.50;0.20;;;5.40;1.00;;;;;;5074080;28;20459;-78
2022/01/09 10:03:30;;;;;;;0.93;0.70;;;5.40;1.00;;;;;;5079188;28;20527;-78
2022/01/09 10:05:59;;;;;;;2.20;0.40;;;5.40;1.00;;;;;;5093241;28;20515;-78
2022/01/09 10:08:37;;;;;;;6.47;1.17;;;5.50;1.00;;;;;;5076453;28;20478;-79
2022/01/09 10:11:16;;;;;;;0.70;0.30;;;5.50;1.00;;;;;;5076009;28;20922;-79
2022/01/09 10:13:44;;;;;;;1.87;1.30;;;5.50;1.00;;;;;;5076932;28;20461;-78
2022/01/09 10:16:15;;;;;;;3.07;2.63;;;5.50;1.00;;;;;;5075444;28;20842;-78
2022/01/09 10:18:45;;;;;;;2.43;2.23;;;5.50;1.00;;;;;;5088231;28;20505;-78
2022/01/09 10:21:14;;;;;;;0.50;0.10;;;5.60;1.00;;;;;;5103948;28;20453;-79
2022/01/09 10:24:00;;;;;;;0.50;0.10;;;5.60;1.00;;;;;;5096273;28;20968;-79
2022/01/09 10:26:30;;;;;;;0.50;0.10;;;5.70;1.00;;;;;;5090015;28;20458;-78
2022/01/09 10:28:59;;;;;;;0.70;0.40;;;5.80;1.00;;;;;;5098892;28;20535;-77
2022/01/09 10:31:28;;;;;;;0.60;0.33;;;5.80;1.00;;;;;;5084506;28;20966;-79
2022/01/09 10:33:58;;;;;;;1.90;1.23;;;5.80;1.00;;;;;;5087888;28;20450;-78
2022/01/09 10:36:39;;;;;;;0.60;0.50;;;5.80;1.00;;;;;;5081055;28;21041;-77
2022/01/09 10:39:09;;;;;;;0.77;0.60;;;5.80;1.00;;;;;;5077705;28;20429;-76
2022/01/09 10:41:51;;;;;;;0.90;0.80;;;5.80;1.00;;;;;;5075414;28;20448;-77
2022/01/09 10:44:21;;;;;;;1.20;0.83;;;5.90;1.00;;;;;;5075230;28;20444;-77
2022/01/09 10:46:58;;;;;;;2.20;0.40;;;5.90;1.00;;;;;;5083378;28;20463;-76
2022/01/09 10:49:37;;;;;;;1.17;0.40;;;5.90;1.00;;;;;;5095458;28;20469;-78
2022/01/09 10:52:19;;;;;;;2.77;2.57;;;5.90;1.00;;;;;;5100418;28;20440;-78
2022/01/09 10:54:49;;;;;;;1.70;1.50;;;6.00;1.00;;;;;;5095762;28;21084;-78
2022/01/09 10:57:19;;;;;;;0.50;0.20;;;6.00;1.00;;;;;;5096884;28;20938;-79
2022/01/09 10:59:48;;;;;;;1.10;0.60;;;6.00;1.00;;;;;;5095072;28;20468;-78
2022/01/09 11:02:19;;;;;;;0.50;0.10;;;6.00;1.00;;;;;;5094960;28;20456;-78
2022/01/09 11:04:49;;;;;;;0.70;0.30;;;5.90;1.00;;;;;;5095110;28;20458;-78
2022/01/09 11:07:18;;;;;;;1.33;1.23;;;5.90;1.00;;;;;;5100116;28;20450;-77
2022/01/09 11:09:48;;;;;;;2.30;0.83;;;6.00;1.00;;;;;;5096629;28;20482;-77
2022/01/09 11:12:20;;;;;;;0.63;0.20;;;6.00;1.00;;;;;;5094823;28;20450;-79
2022/01/09 11:14:51;;;;;;;1.10;0.37;;;6.20;1.00;;;;;;5096508;28;20533;-79
2022/01/09 11:17:22;;;;;;;0.50;0.20;;;6.20;1.00;;;;;;5094890;28;20441;-78
2022/01/09 11:19:50;;;;;;;2.93;1.13;;;6.10;1.00;;;;;;5088731;28;20438;-79
2022/01/09 11:22:18;;;;;;;1.37;0.67;;;6.10;1.00;;;;;;5080235;28;20481;-78
2022/01/09 11:24:59;;;;;;;0.50;0.20;;;6.10;1.00;;;;;;5076072;28;20718;-79
2022/01/09 11:27:40;;;;;;;0.67;0.27;;;6.10;1.00;;;;;;5079164;28;20872;-79
2022/01/09 11:30:13;;;;;;;0.50;0.10;;;6.20;1.00;;;;;;5077284;28;20545;-79
2022/01/09 11:32:50;;;;;;;0.50;0.23;;;6.20;1.00;;;;;;5086731;28;20447;-76
2022/01/09 11:35:29;;;;;;;0.60;0.20;;;6.20;1.00;;;;;;5053631;28;20518;-77
2022/01/09 11:38:07;;;;;;;1.57;0.63;;;6.20;1.00;;;;;;5053769;28;20444;-78
2022/01/09 11:40:37;;;;;;;0.60;0.30;;;6.20;1.00;;;;;;5053711;28;20450;-77
2022/01/09 11:43:07;;;;;;;0.60;0.37;;;6.20;1.00;;;;;;5058487;28;20511;-76
2022/01/09 11:45:47;;;;;;;2.00;0.47;;;6.30;1.00;;;;;;5059544;28;20914;-76
2022/01/09 11:48:18;;;;;;;8.93;2.50;;;6.30;1.00;;;;;;5055739;28;20940;-78
2022/01/09 11:51:17;;;;;;;0.60;0.30;;;6.20;1.00;;;;;;5054003;28;20570;-78
2022/01/09 11:54:05;;;;;;;0.50;0.30;;;6.30;1.00;;;;;;4974274;28;20439;-78
2022/01/09 11:57:08;;;;;;;1.07;0.90;;;6.30;1.00;;;;;;5047869;28;20486;-78
2022/01/09 11:59:51;;;;;;;1.27;0.77;;;6.30;1.00;;;;;;4975929;28;20443;-77
2022/01/09 12:02:35;;;;;;;0.50;0.20;;;6.30;1.00;;;;;;4977363;28;20455;-78
2022/01/09 12:05:07;;;;;;;0.80;0.30;;;6.30;1.00;;;;;;5031666;28;20494;-79
2022/01/09 12:08:03;;;;;;;0.60;0.40;;;6.30;1.00;;;;;;5054551;28;20441;-78
2022/01/09 12:10:35;;;;;;;2.13;1.03;;;6.30;1.00;;;;;;5053928;28;20478;-78
2022/01/09 12:13:05;;;;;;;8.17;0.50;;;6.40;1.00;;;;;;5055790;28;20462;-78
2022/01/09 12:15:38;;;;;;;0.50;0.10;;;6.40;1.00;;;;;;5057828;28;20807;-76
2022/01/09 12:18:08;;;;;;;0.50;0.10;;;6.40;1.00;;;;;;5063993;28;20481;-78
2022/01/09 12:20:41;;;;;;;0.67;0.30;;;6.40;1.00;;;;;;5084888;28;20448;-80
2022/01/09 12:23:21;;;;;;;0.60;0.20;;;6.40;1.00;;;;;;5057409;28;20458;-77
2022/01/09 12:25:55;;;;;;;0.50;0.10;;;6.50;1.00;;;;;;5056515;28;20472;-76
2022/01/09 12:28:25;;;;;;;12.47;0.70;;;6.50;1.00;;;;;;5057039;28;20454;-78
2022/01/09 12:30:58;;;;;;;0.50;0.10;;;6.50;1.00;;;;;;5057835;28;20480;-77
2022/01/09 12:33:50;;;;;;;74.37;2.73;;;6.60;1.00;;;;;;5058523;28;20819;-78
2022/01/09 12:36:27;;;;;;;0.80;0.30;;;6.60;1.00;;;;;;5063142;28;20476;-77
2022/01/09 12:38:58;;;;;;;0.50;0.20;;;6.60;1.00;;;;;;5065508;28;20452;-78
2022/01/09 12:41:29;;;;;;;0.60;0.47;;;6.60;1.00;;;;;;5070284;28;20440;-77
2022/01/09 12:44:01;;;;;;;0.50;0.10;;;6.50;1.00;;;;;;5073947;28;20499;-78
2022/01/09 12:46:33;;;;;;;1.50;0.97;;;6.60;1.00;;;;;;5067807;28;20542;-78
2022/01/09 12:49:03;;;;;;;1.80;1.70;;;6.60;1.00;;;;;;5062940;28;20450;-77
2022/01/09 12:51:32;;;;;;;0.50;0.10;;;6.60;1.00;;;;;;5064734;28;20444;-79
2022/01/09 12:54:04;;;;;;;0.60;0.20;;;6.60;1.00;;;;;;5059891;28;20440;-79
2022/01/09 12:56:32;;;;;;;0.50;0.10;;;6.50;1.00;;;;;;5066981;28;20465;-77
2022/01/09 12:59:05;;;;;;;0.60;0.30;;;6.60;1.00;;;;;;5056220;28;20458;-76
2022/01/09 13:01:36;;;;;;;0.50;0.10;;;6.60;1.00;;;;;;5056200;28;20475;-77
2022/01/09 13:04:09;;;;;;;3.07;0.57;;;6.60;1.00;;;;;;5055172;28;20539;-78
2022/01/09 13:06:40;;;;;;;1.63;1.30;;;6.70;1.00;;;;;;5057070;28;20476;-79
2022/01/09 13:09:14;;;;;;;0.50;0.10;;;6.70;1.00;;;;;;5056999;28;20436;-78
2022/01/09 13:11:53;;;;;;;0.50;0.10;;;6.70;1.00;;;;;;5058085;28;20835;-79
2022/01/09 13:14:34;;;;;;;0.50;0.10;;;6.80;1.00;;;;;;5059004;28;20470;-79
2022/01/09 13:17:04;;;;;;;0.53;0.27;;;6.80;1.00;;;;;;5058880;28;20542;-79
2022/01/09 13:19:52;;;;;;;0.50;0.10;;;6.70;1.00;;;;;;5062482;28;20494;-77
2022/01/09 13:22:22;;;;;;;0.53;0.20;;;6.70;1.00;;;;;;5065593;28;20452;-79
2022/01/09 13:25:02;;;;;;;0.60;0.40;;;6.50;1.00;;;;;;5066101;28;20477;-77
2022/01/09 13:27:30;;;;;;;0.50;0.10;;;6.50;1.00;;;;;;5059672;28;20858;-79